Terminal Aerodrome Forecast
Issued by NWS Charleston, WV

Current Version | Previous Version | Graphics & Text | Print | Product List | Glossary On
Versions: 1 2 3 4 5 6 7 8 9 10 11 12 13 14 15 16 17 18 19 20 21 22 23 24 25 26 27 28 29 30 31 32 33 34
000
FTUS41 KRLX 191700
TAFEKN
TAF
KEKN 191722Z 1918/2018 21009G14KT P6SM SCT120
     FM200600 25010G16KT P6SM OVC030
     FM200900 25009G14KT 5SM -SHSN OVC020
     FM201300 26011G17KT P6SM OVC020
     FM201700 26014G22KT P6SM BKN025=

USA.gov is the U.S. government's official web portal to all federal, state and local government web resources and services.